Weather Data

Pearl Creek Farm: 8878 N Farm Road 75, Walnut Grove MO 65770

<== Previous Day (Saturday 22 Apr 2017) | Next Day (Monday 24 Apr 2017) ==>

Summary Precipitation Data For Sunday 23 April 2017

ElementValueUnits
Precipitation0.01"
NotesMist and drizzle yesterday morning and afternoon.
SourcePearl Creek Farm

Summary Temperature Data For Sunday 23 April 2017

ElementValueUnits
High Temperature69 oF
Low Temperature40 oF
Average Temperature54 oF
High Humidity90 %
Low Humidity28 %
Average Humidity58 %
SourceSpringfield-Branson National Airport (SGF)

Detail Temperature Data For Sunday 23 April 2017

Date / TimeTemp (F)RH (%)Dew Pt (F)Report Date / TimeSource
2017-04-23 00:52:00 45 90 42.0 2017-12-29 17:00:26.17417 Springfield-Branson National Airport (SGF)
2017-04-23 01:52:00 43 86 39.0 2017-12-29 17:00:26.17417 Springfield-Branson National Airport (SGF)
2017-04-23 02:52:00 42 85 38.0 2017-12-29 17:00:26.17417 Springfield-Branson National Airport (SGF)
2017-04-23 03:52:00 40 86 36.0 2017-12-29 17:00:26.17417 Springfield-Branson National Airport (SGF)
2017-04-23 04:52:00 40 86 36.0 2017-12-29 17:00:26.17417 Springfield-Branson National Airport (SGF)
2017-04-23 05:52:00 40 86 36.0 2017-12-29 17:00:26.17417 Springfield-Branson National Airport (SGF)
2017-04-23 06:52:00 45 77 38.0 2017-12-29 17:00:26.17417 Springfield-Branson National Airport (SGF)
2017-04-23 07:52:00 50 66 39.0 2017-12-29 17:00:26.17417 Springfield-Branson National Airport (SGF)
2017-04-23 08:52:00 56 53 39.0 2017-12-29 17:00:26.17417 Springfield-Branson National Airport (SGF)
2017-04-23 09:52:00 59 46 38.0 2017-12-29 17:00:26.17417 Springfield-Branson National Airport (SGF)
2017-04-23 10:52:00 62 40 37.0 2017-12-29 17:00:26.17417 Springfield-Branson National Airport (SGF)
2017-04-23 11:52:00 64 35 36.0 2017-12-29 17:00:26.17417 Springfield-Branson National Airport (SGF)
2017-04-23 12:52:00 66 36 38.0 2017-12-29 17:00:26.17417 Springfield-Branson National Airport (SGF)
2017-04-23 13:52:00 67 33 37.0 2017-12-29 17:00:26.17417 Springfield-Branson National Airport (SGF)
2017-04-23 14:52:00 68 28 34.0 2017-12-29 17:00:26.17417 Springfield-Branson National Airport (SGF)
2017-04-23 15:52:00 69 30 36.0 2017-12-29 17:00:26.17417 Springfield-Branson National Airport (SGF)
2017-04-23 16:52:00 68 28 34.0 2017-12-29 17:00:26.17417 Springfield-Branson National Airport (SGF)
2017-04-23 17:52:00 66 30 34.0 2017-12-29 17:00:26.17417 Springfield-Branson National Airport (SGF)
2017-04-23 18:52:00 65 29 32.0 2017-12-29 17:00:26.17417 Springfield-Branson National Airport (SGF)
2017-04-23 19:52:00 52 64 40.0 2017-12-29 17:00:26.17417 Springfield-Branson National Airport (SGF)
2017-04-23 20:52:00 50 66 39.0 2017-12-29 17:00:26.17417 Springfield-Branson National Airport (SGF)
2017-04-23 21:52:00 49 69 39.0 2017-12-29 17:00:26.17417 Springfield-Branson National Airport (SGF)
2017-04-23 22:52:00 46 73 38.0 2017-12-29 17:00:26.17417 Springfield-Branson National Airport (SGF)
2017-04-23 23:52:00 44 79 38.0 2017-12-29 17:00:26.17417 Springfield-Branson National Airport (SGF)

A total of 24 rows are displayed.